Time;durP1;ratioP1;P1;durP2;ratioP2;P2;SDS_P1;SDS_P2;PMS_P1;PMS_P2;Temp;Humidity;BMP_temperature;BMP_pressure;BME280_temperature;BME280_humidity;BME280_pressure;Samples;Min_cycle;Max_cycle;Signal;HPM_P1;HPM_P2
2023/10/01 00:00:12;;;;;;;;;;;;;;;24.25;31.07;100779.83;108790;1264;545625;-93
2023/10/01 00:02:39;;;;;;;;;;;;;;;24.25;31.06;100779.58;109007;1266;75390;-89
2023/10/01 00:07:42;;;;;;;;;;;;;;;24.24;31.16;100771.47;109004;1266;67673;-89
2023/10/01 00:10:12;;;;;;;;;;;;;;;24.24;31.14;100767.45;109060;1266;67573;-89
2023/10/01 00:12:41;;;;;;;;;;;;;;;24.24;31.15;100765.77;108930;1266;67508;-88
2023/10/01 00:15:09;;;;;;;;;;;;;;;24.23;30.96;100758.61;109113;1265;74352;-89
2023/10/01 00:17:35;;;;;;;;;;;;;;;24.23;31.08;100757.14;109099;1264;67112;-88
2023/10/01 00:22:40;;;;;;;;;;;;;;;24.22;31.08;100755.74;108995;1267;67205;-89
2023/10/01 00:25:07;;;;;;;;;;;;;;;24.22;31.11;100751.23;108978;1267;67550;-89
2023/10/01 00:27:32;;;;;;;;;;;;;;;24.21;31.10;100750.98;108983;1267;67671;-89
2023/10/01 00:29:58;;;;;;;;;;;;;;;24.21;31.23;100747.90;109027;1264;67541;-89
2023/10/01 00:32:23;;;;;;;;;;;;;;;24.21;31.28;100745.17;109024;1264;67594;-89
2023/10/01 00:34:48;;;;;;;;;;;;;;;24.21;31.26;100741.48;109123;1264;67557;-89
2023/10/01 00:37:14;;;;;;;;;;;;;;;24.20;31.25;100738.45;109161;1264;67681;-90
2023/10/01 00:39:39;;;;;;;;;;;;;;;24.20;31.29;100740.25;109265;1264;66877;-89
2023/10/01 00:42:06;;;;;;;;;;;;;;;24.19;31.26;100738.91;109043;1264;67580;-89
2023/10/01 00:44:34;;;;;;;;;;;;;;;24.19;31.43;100741.59;109243;1264;67580;-89
2023/10/01 00:49:46;;;;;;;;;;;;;;;24.18;31.31;100739.48;109099;1266;74256;-89
2023/10/01 00:52:12;;;;;;;;;;;;;;;24.18;31.39;100743.45;109175;1264;67538;-89
2023/10/01 00:54:37;;;;;;;;;;;;;;;24.17;31.43;100741.56;109187;1264;67266;-89
2023/10/01 00:57:03;;;;;;;;;;;;;;;24.18;31.42;100743.56;109220;1264;67569;-89
2023/10/01 00:59:32;;;;;;;;;;;;;;;24.17;31.47;100735.28;109191;1264;67535;-89
2023/10/01 01:02:03;;;;;;;;;;;;;;;24.16;31.56;100734.52;109226;1264;75492;-90
2023/10/01 01:04:36;;;;;;;;;;;;;;;24.16;31.62;100738.27;109166;1264;67516;-89
2023/10/01 01:07:14;;;;;;;;;;;;;;;24.15;31.44;100738.22;109073;1264;66880;-89
2023/10/01 01:09:38;;;;;;;;;;;;;;;24.15;31.53;100736.80;109197;1264;67636;-89
2023/10/01 01:12:05;;;;;;;;;;;;;;;24.15;31.66;100739.48;109019;1266;67594;-89
2023/10/01 01:14:33;;;;;;;;;;;;;;;24.15;31.65;100740.70;108958;1265;68187;-90
2023/10/01 01:17:04;;;;;;;;;;;;;;;24.14;31.64;100740.91;109102;1266;67503;31
2023/10/01 01:19:29;;;;;;;;;;;;;;;24.14;31.59;100739.73;108973;1265;67515;-90
2023/10/01 01:21:56;;;;;;;;;;;;;;;24.13;31.73;100739.38;109154;1265;66891;-90
2023/10/01 01:24:24;;;;;;;;;;;;;;;24.13;31.60;100735.42;109193;1264;67797;-87
2023/10/01 01:27:00;;;;;;;;;;;;;;;24.13;31.73;100737.70;108845;1264;557867;-93
2023/10/01 01:29:34;;;;;;;;;;;;;;;24.12;31.50;100736.76;109242;1264;72391;-89
2023/10/01 01:32:15;;;;;;;;;;;;;;;24.12;31.68;100733.31;109196;1264;67583;-88
2023/10/01 01:40:23;;;;;;;;;;;;;;;24.10;31.72;100735.79;109184;1264;74468;-89
2023/10/01 01:42:56;;;;;;;;;;;;;;;24.10;31.56;100735.29;109148;1264;67624;-89
2023/10/01 01:45:26;;;;;;;;;;;;;;;24.09;31.55;100736.84;109201;1264;67510;-89
2023/10/01 01:47:53;;;;;;;;;;;;;;;24.09;31.72;100737.52;109076;1266;67605;-89
2023/10/01 01:50:19;;;;;;;;;;;;;;;24.09;31.56;100735.04;109147;1265;67504;-89
2023/10/01 01:52:49;;;;;;;;;;;;;;;24.08;31.70;100741.47;109158;1265;67407;-92
2023/10/01 01:55:29;;;;;;;;;;;;;;;24.09;31.69;100743.78;109105;1266;67608;-89
2023/10/01 01:58:10;;;;;;;;;;;;;;;24.08;31.68;100745.23;109164;1264;66880;-89
2023/10/01 02:00:37;;;;;;;;;;;;;;;24.07;31.65;100742.37;109167;1264;67592;-89
2023/10/01 02:03:22;;;;;;;;;;;;;;;24.07;31.69;100743.86;108780;1266;559059;-93
2023/10/01 02:05:47;;;;;;;;;;;;;;;24.06;31.81;100743.09;108955;1267;74012;-89
2023/10/01 02:11:15;;;;;;;;;;;;;;;24.05;31.82;100739.61;108919;1264;67724;-89
2023/10/01 02:13:51;;;;;;;;;;;;;;;24.05;31.75;100739.41;109188;1264;67365;31
2023/10/01 02:16:35;;;;;;;;;;;;;;;24.05;31.77;100737.10;109076;1265;67502;-89
2023/10/01 02:21:59;;;;;;;;;;;;;;;24.03;31.79;100744.61;109068;1267;67489;-90
2023/10/01 02:26:58;;;;;;;;;;;;;;;24.03;31.85;100743.95;108857;1264;553581;-89
2023/10/01 02:29:25;;;;;;;;;;;;;;;24.02;31.72;100741.48;109385;1264;67004;-88
2023/10/01 02:31:56;;;;;;;;;;;;;;;24.01;31.78;100741.59;109396;1264;66979;-90
2023/10/01 02:37:08;;;;;;;;;;;;;;;24.00;31.93;100745.30;108984;1267;67544;-89
2023/10/01 02:39:37;;;;;;;;;;;;;;;24.00;31.98;100745.23;108945;1265;67583;-89
2023/10/01 02:44:31;;;;;;;;;;;;;;;23.99;31.88;100743.29;108987;1266;74476;-89
2023/10/01 02:47:09;;;;;;;;;;;;;;;23.99;32.00;100740.02;108711;1264;557814;-92
2023/10/01 02:49:39;;;;;;;;;;;;;;;23.99;31.90;100737.86;109204;1264;67762;-91
2023/10/01 02:52:05;;;;;;;;;;;;;;;23.98;32.04;100738.79;109138;1264;67450;-89
2023/10/01 02:54:31;;;;;;;;;;;;;;;23.98;31.94;100736.01;109231;1264;66957;-89
2023/10/01 02:57:12;;;;;;;;;;;;;;;23.97;32.10;100732.87;109192;1264;67241;-89
2023/10/01 03:00:11;;;;;;;;;;;;;;;23.97;32.06;100734.16;108993;1266;67525;-89
2023/10/01 03:02:16;;;;;;;;;;;;;;;23.97;32.00;100735.14;109209;1264;66942;-89
2023/10/01 03:04:46;;;;;;;;;;;;;;;23.97;32.01;100737.02;109022;1264;67035;-88
2023/10/01 03:07:14;;;;;;;;;;;;;;;23.96;32.09;100736.36;109015;1266;67467;-89
2023/10/01 03:09:40;;;;;;;;;;;;;;;23.96;32.21;100739.45;109183;1264;74180;-88
2023/10/01 03:14:42;;;;;;;;;;;;;;;23.95;32.18;100744.17;108749;1264;553841;-89
2023/10/01 03:17:17;;;;;;;;;;;;;;;23.95;32.20;100744.55;109047;1266;66917;-88
2023/10/01 03:19:46;;;;;;;;;;;;;;;23.94;32.20;100743.11;109128;1263;67465;-90
2023/10/01 03:22:23;;;;;;;;;;;;;;;23.94;32.14;100746.35;109110;1265;74311;-90
2023/10/01 03:24:47;;;;;;;;;;;;;;;23.95;32.35;100747.23;109210;1264;67653;-90
2023/10/01 03:27:26;;;;;;;;;;;;;;;23.93;32.28;100745.23;109345;1264;66991;-90
2023/10/01 03:30:01;;;;;;;;;;;;;;;23.94;32.32;100741.33;109272;1264;67458;-90
2023/10/01 03:32:27;;;;;;;;;;;;;;;23.94;32.14;100736.95;109269;1264;67607;-90
2023/10/01 03:34:56;;;;;;;;;;;;;;;23.93;32.24;100738.86;109250;1264;74019;-90
2023/10/01 03:37:28;;;;;;;;;;;;;;;23.93;32.22;100735.27;109212;1264;67471;31
2023/10/01 03:40:03;;;;;;;;;;;;;;;23.92;32.34;100733.52;109106;1266;67378;-89
2023/10/01 03:42:29;;;;;;;;;;;;;;;23.92;32.34;100736.48;109005;1266;67428;-89
2023/10/01 03:47:41;;;;;;;;;;;;;;;23.92;32.37;100735.73;109260;1264;74422;-90
2023/10/01 03:50:09;;;;;;;;;;;;;;;23.92;32.37;100734.45;109118;1264;67600;-90
2023/10/01 03:52:39;;;;;;;;;;;;;;;23.91;32.42;100733.53;109184;1264;67507;-90
2023/10/01 03:55:25;;;;;;;;;;;;;;;23.90;32.33;100733.73;109223;1264;67528;-90
2023/10/01 04:00:53;;;;;;;;;;;;;;;23.90;32.26;100731.98;108821;1264;553450;-89
2023/10/01 04:03:21;;;;;;;;;;;;;;;23.90;32.40;100734.81;109155;1264;67134;-89
2023/10/01 04:05:47;;;;;;;;;;;;;;;23.90;32.40;100737.34;109188;1264;67632;-89
2023/10/01 04:08:13;;;;;;;;;;;;;;;23.89;32.39;100736.27;109231;1264;67599;-89
2023/10/01 04:10:39;;;;;;;;;;;;;;;23.89;32.32;100741.60;109242;1264;67433;-89
2023/10/01 04:15:47;;;;;;;;;;;;;;;23.89;32.41;100746.29;109176;1264;67624;-89
2023/10/01 04:18:19;;;;;;;;;;;;;;;23.89;32.34;100747.57;109209;1264;67532;-89
2023/10/01 04:20:48;;;;;;;;;;;;;;;23.88;32.38;100744.08;109011;1266;67564;-89
2023/10/01 04:23:21;;;;;;;;;;;;;;;23.88;32.52;100748.30;109192;1265;74367;-90
2023/10/01 04:25:47;;;;;;;;;;;;;;;23.87;32.51;100747.83;109224;1265;74326;-90
2023/10/01 04:28:20;;;;;;;;;;;;;;;23.87;32.61;100746.96;109181;1266;67597;31
2023/10/01 04:30:48;;;;;;;;;;;;;;;23.86;32.52;100748.71;109179;1264;67462;-90
2023/10/01 04:33:17;;;;;;;;;;;;;;;23.87;32.59;100754.11;109178;1264;67560;-89
2023/10/01 04:35:51;;;;;;;;;;;;;;;23.86;32.59;100757.60;109194;1264;67761;-89
2023/10/01 04:38:22;;;;;;;;;;;;;;;23.86;32.55;100760.54;109271;1266;74300;-88
2023/10/01 04:40:48;;;;;;;;;;;;;;;23.86;32.53;100760.50;108990;1265;68036;-89
2023/10/01 04:43:16;;;;;;;;;;;;;;;23.85;32.63;100761.26;108928;1266;67563;-89
2023/10/01 04:45:44;;;;;;;;;;;;;;;23.85;32.77;100762.70;109096;1265;67562;-89
2023/10/01 04:48:24;;;;;;;;;;;;;;;23.86;32.72;100765.58;109143;1265;67503;-89
2023/10/01 04:50:53;;;;;;;;;;;;;;;23.85;32.69;100765.52;109179;1265;74212;-89
2023/10/01 04:53:23;;;;;;;;;;;;;;;23.85;32.69;100767.02;108981;1266;66814;-89
2023/10/01 04:56:06;;;;;;;;;;;;;;;23.85;32.72;100770.87;108959;1265;66971;-89
2023/10/01 04:58:32;;;;;;;;;;;;;;;23.85;32.80;100772.00;109129;1265;67612;-88
2023/10/01 05:00:58;;;;;;;;;;;;;;;23.85;32.76;100773.23;109141;1265;66898;-89
2023/10/01 05:03:39;;;;;;;;;;;;;;;23.85;32.65;100775.80;108972;1266;67523;-89
2023/10/01 05:08:38;;;;;;;;;;;;;;;23.85;32.60;100778.32;109216;1264;66877;-89
2023/10/01 05:11:13;;;;;;;;;;;;;;;23.85;32.72;100777.91;109057;1264;67732;-89
2023/10/01 05:13:41;;;;;;;;;;;;;;;23.85;32.67;100775.91;109221;1264;67531;-89
2023/10/01 05:16:07;;;;;;;;;;;;;;;23.84;32.69;100774.77;109198;1264;75310;-89
2023/10/01 05:18:33;;;;;;;;;;;;;;;23.85;32.70;100777.34;109192;1264;67603;-88
2023/10/01 05:21:09;;;;;;;;;;;;;;;23.85;32.69;100777.81;109072;1267;67657;-89
2023/10/01 05:23:36;;;;;;;;;;;;;;;23.85;32.69;100784.17;109176;1264;66924;-89
2023/10/01 05:26:05;;;;;;;;;;;;;;;23.85;32.74;100782.17;109165;1266;66918;-88
2023/10/01 05:28:31;;;;;;;;;;;;;;;23.85;32.78;100786.73;109258;1264;75231;-89
2023/10/01 05:31:06;;;;;;;;;;;;;;;23.86;32.78;100790.48;109037;1265;67617;-91
2023/10/01 05:33:35;;;;;;;;;;;;;;;23.86;32.71;100796.86;109215;1264;67529;-89
2023/10/01 05:38:34;;;;;;;;;;;;;;;23.86;32.78;100798.45;109246;1264;67622;-88
2023/10/01 05:41:03;;;;;;;;;;;;;;;23.88;32.69;100806.20;108981;1264;287188;-89
2023/10/01 05:43:35;;;;;;;;;;;;;;;23.87;32.80;100804.73;109077;1266;67617;-89
2023/10/01 05:46:10;;;;;;;;;;;;;;;23.89;32.73;100804.05;108578;1265;559115;-92
2023/10/01 05:48:37;;;;;;;;;;;;;;;23.89;32.76;100801.22;108995;1265;67516;-88
2023/10/01 05:51:04;;;;;;;;;;;;;;;23.90;32.74;100799.05;108539;1264;559568;-89
2023/10/01 05:53:32;;;;;;;;;;;;;;;23.89;32.80;100804.30;109216;1264;67870;-90
2023/10/01 05:56:07;;;;;;;;;;;;;;;23.91;32.84;100808.97;109251;1266;72336;-90
2023/10/01 05:58:39;;;;;;;;;;;;;;;23.92;32.80;100811.58;109045;1266;67499;-90
2023/10/01 06:01:15;;;;;;;;;;;;;;;23.91;32.82;100815.39;108626;1263;553814;-91
2023/10/01 06:06:24;;;;;;;;;;;;;;;23.92;32.73;100816.83;109109;1266;74082;-90
2023/10/01 06:14:08;;;;;;;;;;;;;;;23.95;32.85;100820.87;108774;1264;553584;-89
2023/10/01 06:16:40;;;;;;;;;;;;;;;23.96;32.86;100820.96;109004;1266;67035;-89
2023/10/01 06:19:11;;;;;;;;;;;;;;;23.96;32.80;100826.21;109137;1263;74066;-88
2023/10/01 06:24:13;;;;;;;;;;;;;;;23.96;32.82;100836.63;109177;1264;67745;-89
2023/10/01 06:26:50;;;;;;;;;;;;;;;23.98;32.76;100841.16;109067;1266;67752;-89
2023/10/01 06:29:16;;;;;;;;;;;;;;;23.98;32.74;100844.66;109205;1264;67656;-89
2023/10/01 06:31:52;;;;;;;;;;;;;;;23.99;32.82;100843.27;109234;1264;67136;-89
2023/10/01 06:34:23;;;;;;;;;;;;;;;23.99;32.76;100843.02;109183;1264;67929;-88
2023/10/01 06:36:57;;;;;;;;;;;;;;;24.00;32.74;100846.81;108992;1264;67612;-88
2023/10/01 06:39:24;;;;;;;;;;;;;;;24.00;32.88;100845.16;109139;1265;67547;-89
2023/10/01 06:41:52;;;;;;;;;;;;;;;24.01;32.84;100844.39;109210;1268;68207;-89
2023/10/01 06:44:22;;;;;;;;;;;;;;;24.01;32.90;100842.08;109204;1264;74070;-89
2023/10/01 06:46:50;;;;;;;;;;;;;;;24.03;32.89;100844.48;109208;1264;67699;-89
2023/10/01 06:49:19;;;;;;;;;;;;;;;24.04;32.74;100849.10;109130;1265;67425;-88
2023/10/01 06:51:50;;;;;;;;;;;;;;;24.04;32.93;100850.29;109094;1266;66878;-88
2023/10/01 06:54:18;;;;;;;;;;;;;;;24.05;32.89;100856.70;109036;1267;67585;-90
2023/10/01 06:56:47;;;;;;;;;;;;;;;24.05;32.84;100860.56;109215;1264;67217;-89
2023/10/01 07:01:56;;;;;;;;;;;;;;;24.07;32.81;100866.41;109082;1264;67608;-89
2023/10/01 07:04:23;;;;;;;;;;;;;;;24.07;32.84;100870.47;109092;1264;67546;-90
2023/10/01 07:06:50;;;;;;;;;;;;;;;24.08;32.87;100869.38;109167;1267;67888;-90
2023/10/01 07:09:24;;;;;;;;;;;;;;;24.09;32.89;100873.32;109106;1264;74024;-90
2023/10/01 07:12:10;;;;;;;;;;;;;;;24.10;32.68;100873.31;109011;1266;66927;-88
2023/10/01 07:14:43;;;;;;;;;;;;;;;24.11;32.74;100874.55;109017;1266;67577;-89
2023/10/01 07:17:08;;;;;;;;;;;;;;;24.12;32.69;100880.45;109164;1265;67387;-89
2023/10/01 07:19:38;;;;;;;;;;;;;;;24.12;32.80;100877.42;109004;1266;67723;-88
2023/10/01 07:22:07;;;;;;;;;;;;;;;24.13;32.73;100876.34;108965;1266;67044;-89
2023/10/01 07:27:17;;;;;;;;;;;;;;;24.14;32.69;100878.95;109042;1266;67525;-88
2023/10/01 07:29:47;;;;;;;;;;;;;;;24.14;32.69;100879.92;108995;1266;67583;-88
2023/10/01 07:32:13;;;;;;;;;;;;;;;24.15;32.65;100880.99;109204;1264;67438;-89
2023/10/01 07:34:48;;;;;;;;;;;;;;;24.15;32.69;100879.05;108951;1264;557932;-94
2023/10/01 07:37:31;;;;;;;;;;;;;;;24.16;32.61;100880.80;109234;1264;67693;-89
2023/10/01 07:40:09;;;;;;;;;;;;;;;24.16;32.58;100881.30;109232;1264;67132;-89
2023/10/01 07:42:49;;;;;;;;;;;;;;;24.18;32.56;100880.84;109087;1266;67599;-88
2023/10/01 07:45:34;;;;;;;;;;;;;;;24.18;32.60;100881.80;108993;1266;67697;-89
2023/10/01 07:48:04;;;;;;;;;;;;;;;24.17;32.63;100882.23;109171;1265;74444;-89
2023/10/01 07:50:35;;;;;;;;;;;;;;;24.18;32.47;100883.86;109219;1264;67606;-89
2023/10/01 07:53:05;;;;;;;;;;;;;;;24.18;32.49;100884.58;109182;1264;68495;-90
2023/10/01 07:58:23;;;;;;;;;;;;;;;24.19;32.58;100885.51;109008;1264;67767;-89
2023/10/01 08:00:58;;;;;;;;;;;;;;;24.20;32.70;100882.63;109153;1263;83836;-89
2023/10/01 08:06:12;;;;;;;;;;;;;;;24.20;32.51;100883.90;108976;1267;67370;-89
2023/10/01 08:08:47;;;;;;;;;;;;;;;24.20;32.65;100882.25;109202;1264;67783;-89
2023/10/01 08:14:05;;;;;;;;;;;;;;;24.21;32.71;100885.06;109224;1266;74323;-89
2023/10/01 08:16:43;;;;;;;;;;;;;;;24.22;32.43;100886.81;109197;1264;67559;-89
2023/10/01 08:19:11;;;;;;;;;;;;;;;24.22;32.47;100886.55;109119;1264;67661;-89
2023/10/01 08:21:37;;;;;;;;;;;;;;;24.22;32.48;100885.48;109167;1263;67490;-89
2023/10/01 08:24:09;;;;;;;;;;;;;;;24.22;32.54;100880.84;109131;1264;67808;-89
2023/10/01 08:32:49;;;;;;;;;;;;;;;24.24;32.54;100884.16;109153;1264;67231;-89
2023/10/01 08:35:32;;;;;;;;;;;;;;;24.25;32.52;100881.59;109023;1266;67503;-89
2023/10/01 08:37:59;;;;;;;;;;;;;;;24.26;32.52;100882.27;109010;1267;68436;-89
2023/10/01 08:40:27;;;;;;;;;;;;;;;24.27;32.44;100883.49;109187;1267;75217;-89
2023/10/01 08:42:53;;;;;;;;;;;;;;;24.28;32.38;100881.73;109216;1266;67728;-89
2023/10/01 08:45:34;;;;;;;;;;;;;;;24.28;32.42;100881.94;109213;1264;67674;31
2023/10/01 08:50:41;;;;;;;;;;;;;;;24.29;32.40;100885.63;109149;1264;67516;-89
2023/10/01 08:53:10;;;;;;;;;;;;;;;24.29;32.47;100886.09;108501;1264;554179;-89
2023/10/01 08:55:39;;;;;;;;;;;;;;;24.30;32.57;100891.14;109174;1264;67805;-89
2023/10/01 09:00:48;;;;;;;;;;;;;;;24.31;32.35;100883.76;109194;1264;68043;-89
2023/10/01 09:03:34;;;;;;;;;;;;;;;24.32;32.57;100887.09;109233;1264;67584;31
2023/10/01 09:08:42;;;;;;;;;;;;;;;24.33;32.60;100886.83;109176;1264;67905;-89
2023/10/01 09:11:12;;;;;;;;;;;;;;;24.33;32.47;100886.20;109205;1264;67032;-89
2023/10/01 09:16:30;;;;;;;;;;;;;;;24.34;32.45;100883.22;109038;1267;67817;-89
2023/10/01 09:19:03;;;;;;;;;;;;;;;24.35;32.34;100880.48;109352;1264;75173;-89
2023/10/01 09:21:38;;;;;;;;;;;;;;;24.35;32.39;100880.23;108999;1267;66898;-89
2023/10/01 09:24:31;;;;;;;;;;;;;;;24.36;32.42;100879.60;109001;1267;67511;-89
2023/10/01 09:26:56;;;;;;;;;;;;;;;24.36;32.59;100874.41;109055;1265;67477;-89
2023/10/01 09:29:32;;;;;;;;;;;;;;;24.38;32.59;100878.81;109015;1266;67639;-89
2023/10/01 09:31:58;;;;;;;;;;;;;;;24.38;32.28;100879.48;109186;1265;74229;-89
2023/10/01 09:34:31;;;;;;;;;;;;;;;24.39;32.39;100876.87;109210;1265;67324;-89
2023/10/01 09:37:03;;;;;;;;;;;;;;;24.40;32.41;100878.61;109304;1265;66933;-89
2023/10/01 09:42:28;;;;;;;;;;;;;;;24.41;32.15;100875.77;109096;1267;67578;-89
2023/10/01 09:47:35;;;;;;;;;;;;;;;24.42;32.40;100864.77;109012;1268;67161;-89
2023/10/01 09:50:00;;;;;;;;;;;;;;;24.42;32.43;100867.89;109050;1267;67608;-89
2023/10/01 09:52:48;;;;;;;;;;;;;;;24.43;32.33;100873.80;109016;1271;67622;-89
2023/10/01 09:55:24;;;;;;;;;;;;;;;24.43;32.51;100868.85;109158;1266;67503;-89
2023/10/01 09:57:49;;;;;;;;;;;;;;;24.43;32.45;100870.19;109052;1265;74189;-88
2023/10/01 10:00:17;;;;;;;;;;;;;;;24.45;32.29;100865.23;109033;1265;67806;-89
2023/10/01 10:02:51;;;;;;;;;;;;;;;24.46;32.15;100867.23;109059;1264;67575;-89
2023/10/01 10:05:29;;;;;;;;;;;;;;;24.47;32.30;100864.20;108923;1267;67539;-89
2023/10/01 10:07:55;;;;;;;;;;;;;;;24.48;32.24;100863.31;108889;1265;67589;-89
2023/10/01 10:10:24;;;;;;;;;;;;;;;24.49;32.22;100863.67;109001;1266;67013;-89
2023/10/01 10:12:53;;;;;;;;;;;;;;;24.49;32.20;100863.86;108968;1265;67531;-89
2023/10/01 10:18:15;;;;;;;;;;;;;;;24.49;32.13;100861.56;108977;1267;67887;31
2023/10/01 10:23:29;;;;;;;;;;;;;;;24.51;32.18;100857.95;108695;1264;558863;-88
2023/10/01 10:26:12;;;;;;;;;;;;;;;24.51;32.01;100857.34;109191;1264;67213;-90
2023/10/01 10:28:53;;;;;;;;;;;;;;;24.52;32.04;100856.60;108929;1264;557161;-91
2023/10/01 10:31:33;;;;;;;;;;;;;;;24.53;31.89;100853.11;109184;1264;67698;-90
2023/10/01 10:34:24;;;;;;;;;;;;;;;24.54;32.10;100848.00;109217;1264;67641;-89
2023/10/01 10:36:54;;;;;;;;;;;;;;;24.54;31.90;100845.23;109169;1266;74029;-89
2023/10/01 10:42:29;;;;;;;;;;;;;;;24.55;31.88;100847.35;109203;1264;67602;-89
2023/10/01 10:53:23;;;;;;;;;;;;;;;24.58;31.89;100829.63;109225;1264;67515;-89
2023/10/01 10:56:02;;;;;;;;;;;;;;;24.59;31.85;100831.88;108490;1264;558505;-89
2023/10/01 11:01:24;;;;;;;;;;;;;;;24.59;31.64;100828.99;109103;1264;67546;-90
2023/10/01 11:07:01;;;;;;;;;;;;;;;24.60;31.73;100828.02;108792;1264;553676;-89
2023/10/01 11:09:31;;;;;;;;;;;;;;;24.61;31.69;100818.84;109080;1264;67193;-89
2023/10/01 11:15:19;;;;;;;;;;;;;;;24.63;31.68;100819.20;109115;1266;67381;31
2023/10/01 11:17:30;;;;;;;;;;;;;;;24.64;31.72;100822.73;108496;1267;560629;-89
2023/10/01 11:19:58;;;;;;;;;;;;;;;24.64;31.81;100819.39;108299;1264;557561;-88
2023/10/01 11:22:24;;;;;;;;;;;;;;;24.65;31.86;100820.46;109183;1264;67712;-89
2023/10/01 11:24:54;;;;;;;;;;;;;;;24.66;31.69;100822.92;109029;1267;67060;-89
2023/10/01 11:27:43;;;;;;;;;;;;;;;24.65;31.43;100815.93;109156;1264;66974;-89
2023/10/01 11:38:18;;;;;;;;;;;;;;;24.66;31.62;100812.52;109002;1267;67618;-89
2023/10/01 11:46:57;;;;;;;;;;;;;;;24.65;31.41;100812.55;109208;1264;68083;-89
2023/10/01 11:49:37;;;;;;;;;;;;;;;24.65;31.48;100811.36;109159;1264;67499;-89
2023/10/01 12:00:59;;;;;;;;;;;;;;;24.63;31.39;100808.45;108753;1264;559547;-89
2023/10/01 12:03:28;;;;;;;;;;;;;;;24.63;31.28;100806.64;109227;1264;67601;-89
2023/10/01 12:05:57;;;;;;;;;;;;;;;24.63;31.34;100802.83;109150;1264;66910;-89
2023/10/01 12:11:28;;;;;;;;;;;;;;;24.63;31.56;100801.65;108935;1264;553897;-90
2023/10/01 12:14:06;;;;;;;;;;;;;;;24.63;31.61;100798.71;109167;1264;67770;-90
2023/10/01 12:16:36;;;;;;;;;;;;;;;24.63;31.67;100798.72;108288;1265;554642;-87
2023/10/01 12:19:23;;;;;;;;;;;;;;;24.63;31.50;100797.54;109041;1264;67651;-90
2023/10/01 12:22:06;;;;;;;;;;;;;;;24.63;31.47;100795.54;109204;1264;67491;-90
2023/10/01 12:27:10;;;;;;;;;;;;;;;24.61;31.40;100793.85;109215;1264;67125;-89
2023/10/01 12:32:14;;;;;;;;;;;;;;;24.61;31.49;100792.87;109241;1264;67446;-89
2023/10/01 12:34:43;;;;;;;;;;;;;;;24.60;31.37;100790.46;108887;1265;555141;-92
2023/10/01 12:40:14;;;;;;;;;;;;;;;24.60;31.68;100780.27;109193;1264;66939;-90
2023/10/01 12:48:08;;;;;;;;;;;;;;;24.59;31.52;100771.38;109084;1264;67721;-89
2023/10/01 12:50:59;;;;;;;;;;;;;;;24.59;31.60;100771.23;109203;1264;74382;-88
2023/10/01 12:55:56;;;;;;;;;;;;;;;24.59;31.53;100770.20;108998;1266;67466;-88
2023/10/01 12:58:37;;;;;;;;;;;;;;;24.58;31.54;100767.73;109014;1266;66907;-89
2023/10/01 13:01:04;;;;;;;;;;;;;;;24.58;31.68;100764.96;109045;1266;67782;-89
2023/10/01 13:03:42;;;;;;;;;;;;;;;24.58;31.70;100765.48;109023;1266;74428;-89
2023/10/01 13:06:12;;;;;;;;;;;;;;;24.58;31.73;100766.19;109101;1264;67706;-89
2023/10/01 13:08:42;;;;;;;;;;;;;;;24.58;31.74;100766.76;109219;1264;67162;-89
2023/10/01 13:13:53;;;;;;;;;;;;;;;24.58;31.58;100764.04;109067;1267;67770;-89
2023/10/01 13:16:19;;;;;;;;;;;;;;;24.58;31.52;100759.61;109030;1265;68301;-89
2023/10/01 13:18:44;;;;;;;;;;;;;;;24.58;31.70;100761.61;109040;1266;68166;-89
2023/10/01 13:21:10;;;;;;;;;;;;;;;24.57;31.72;100762.80;108960;1266;66938;-89
2023/10/01 13:23:42;;;;;;;;;;;;;;;24.57;31.81;100766.52;109105;1264;67562;-89
2023/10/01 13:28:46;;;;;;;;;;;;;;;24.57;31.64;100762.24;109197;1264;74184;-89
2023/10/01 14:09:52;;;;;;;;;;;;;;;24.56;31.71;100750.06;109328;1264;74394;-89
2023/10/01 14:15:24;;;;;;;;;;;;;;;24.56;31.85;100749.09;109213;1264;67652;-89
2023/10/01 14:17:56;;;;;;;;;;;;;;;24.56;31.90;100746.66;109076;1267;67519;-89
2023/10/01 14:20:38;;;;;;;;;;;;;;;24.56;31.74;100749.96;109147;1264;66865;-88
2023/10/01 14:23:22;;;;;;;;;;;;;;;24.56;31.84;100750.80;109227;1264;74220;31
2023/10/01 14:25:53;;;;;;;;;;;;;;;24.56;31.94;100750.21;109036;1266;66843;-89
2023/10/01 14:28:25;;;;;;;;;;;;;;;24.56;32.02;100749.46;108971;1266;67363;-89
2023/10/01 14:30:58;;;;;;;;;;;;;;;24.56;31.83;100750.89;108959;1266;67564;-90
2023/10/01 14:33:27;;;;;;;;;;;;;;;24.56;31.99;100753.72;109037;1266;67785;-89
2023/10/01 14:35:57;;;;;;;;;;;;;;;24.56;32.14;100754.85;109202;1264;74193;-89
2023/10/01 14:38:37;;;;;;;;;;;;;;;24.56;32.02;100757.84;109251;1264;67173;-89
2023/10/01 14:41:15;;;;;;;;;;;;;;;24.56;32.03;100757.27;109131;1264;67471;31
2023/10/01 14:43:48;;;;;;;;;;;;;;;24.55;32.00;100756.66;108970;1269;67530;-89
2023/10/01 14:46:15;;;;;;;;;;;;;;;24.55;32.16;100761.91;109176;1264;67784;-89
2023/10/01 14:48:47;;;;;;;;;;;;;;;24.55;32.20;100761.87;109188;1264;67296;-89
2023/10/01 14:54:18;;;;;;;;;;;;;;;24.56;32.09;100762.32;109032;1264;66970;-89
2023/10/01 14:56:49;;;;;;;;;;;;;;;24.56;32.15;100760.77;109230;1264;66973;-89
2023/10/01 14:59:18;;;;;;;;;;;;;;;24.55;32.10;100763.88;109048;1264;67495;-89
2023/10/01 15:04:35;;;;;;;;;;;;;;;24.55;32.28;100771.78;109214;1264;67649;-88
2023/10/01 15:09:39;;;;;;;;;;;;;;;24.55;32.26;100770.51;109180;1264;67558;-89
2023/10/01 15:12:09;;;;;;;;;;;;;;;24.55;32.20;100770.05;109250;1264;68155;-90
2023/10/01 15:17:17;;;;;;;;;;;;;;;24.55;32.20;100769.77;109036;1264;67196;-89
2023/10/01 15:22:56;;;;;;;;;;;;;;;24.55;32.22;100773.03;108734;1264;541482;-89
2023/10/01 15:25:24;;;;;;;;;;;;;;;24.55;32.35;100772.46;109249;1264;74468;-89
2023/10/01 15:27:54;;;;;;;;;;;;;;;24.54;32.29;100772.54;109234;1264;73986;-89
2023/10/01 15:30:24;;;;;;;;;;;;;;;24.54;32.30;100771.65;109012;1266;67585;-89
2023/10/01 15:33:02;;;;;;;;;;;;;;;24.54;32.29;100772.73;108858;1264;504546;-90
2023/10/01 15:35:43;;;;;;;;;;;;;;;24.53;32.41;100770.73;108763;1264;559982;-91
2023/10/01 15:38:11;;;;;;;;;;;;;;;24.53;32.41;100767.55;109186;1264;67915;-89
2023/10/01 15:43:26;;;;;;;;;;;;;;;24.52;32.26;100768.73;108763;1264;553731;-89
2023/10/01 15:46:13;;;;;;;;;;;;;;;24.52;32.23;100770.44;108586;1264;539508;-89
2023/10/01 15:48:48;;;;;;;;;;;;;;;24.52;32.31;100772.14;109208;1264;67742;-88
2023/10/01 15:51:25;;;;;;;;;;;;;;;24.52;32.49;100778.16;109216;1264;68280;-89
2023/10/01 15:54:00;;;;;;;;;;;;;;;24.52;32.53;100778.31;108774;1264;547040;-93
2023/10/01 15:59:19;;;;;;;;;;;;;;;24.51;32.59;100782.64;108580;1264;535996;-92
2023/10/01 16:01:52;;;;;;;;;;;;;;;24.51;32.48;100786.60;109077;1265;67639;31
2023/10/01 16:04:21;;;;;;;;;;;;;;;24.51;32.61;100787.54;109203;1265;66852;-90
2023/10/01 16:09:25;;;;;;;;;;;;;;;24.50;32.87;100785.63;109203;1264;67487;-89
2023/10/01 16:11:54;;;;;;;;;;;;;;;24.50;32.85;100783.36;109151;1264;67554;-89
2023/10/01 16:14:26;;;;;;;;;;;;;;;24.50;32.76;100783.33;109230;1264;67163;-89
2023/10/01 16:17:15;;;;;;;;;;;;;;;24.50;32.53;100782.60;108606;1264;549784;-91
2023/10/01 16:19:56;;;;;;;;;;;;;;;24.50;32.61;100781.32;109177;1264;74464;-89
2023/10/01 16:22:22;;;;;;;;;;;;;;;24.49;32.61;100782.54;109235;1265;66797;-89
2023/10/01 16:24:51;;;;;;;;;;;;;;;24.50;32.70;100788.11;108356;1268;562484;-89
2023/10/01 16:27:26;;;;;;;;;;;;;;;24.49;32.86;100787.75;108829;1266;529921;-93
2023/10/01 16:32:35;;;;;;;;;;;;;;;24.49;32.87;100784.61;108480;1264;557569;-93
2023/10/01 16:35:03;;;;;;;;;;;;;;;24.48;32.87;100789.50;109215;1264;67662;-89